createdAt,value
2019-03-13T00:00:48.246Z,49.66
2019-03-13T00:01:48.532Z,49.98
2019-03-13T00:02:48.830Z,50.18
2019-03-13T00:03:49.128Z,49.05
2019-03-13T00:04:49.445Z,49.46
2019-03-13T00:05:49.743Z,49.02
2019-03-13T00:06:50.025Z,48.94
2019-03-13T00:07:50.376Z,49.25
2019-03-13T00:08:50.605Z,49.46
2019-03-13T00:09:50.935Z,49.33
2019-03-13T00:10:51.247Z,49.02
2019-03-13T00:11:51.523Z,50.08
2019-03-13T00:12:51.821Z,49.95
2019-03-13T00:13:52.139Z,49.74
2019-03-13T00:14:52.442Z,49.66
2019-03-13T00:15:52.770Z,49.44
2019-03-13T00:16:53.001Z,49.74
2019-03-13T00:17:53.309Z,49.02
2019-03-13T00:18:53.630Z,49.54
2019-03-13T00:19:53.944Z,49.44
2019-03-13T00:20:54.210Z,49.00
2019-03-13T00:21:54.495Z,49.54
2019-03-13T00:22:54.827Z,49.21
2019-03-13T00:23:55.153Z,47.89
2019-03-13T00:24:56.207Z,48.69
2019-03-13T00:25:55.718Z,48.69
2019-03-13T00:26:56.008Z,48.90
2019-03-13T00:27:56.319Z,48.38
2019-03-13T00:28:56.637Z,47.97
2019-03-13T00:29:56.946Z,48.69
2019-03-13T00:30:57.239Z,48.38
2019-03-13T00:31:59.517Z,48.69
2019-03-13T00:32:57.928Z,47.13
2019-03-13T00:33:58.141Z,47.85
2019-03-13T00:34:58.449Z,47.95
2019-03-13T00:35:58.746Z,47.23
2019-03-13T00:36:59.014Z,47.64
2019-03-13T00:37:59.330Z,47.74
2019-03-13T00:38:59.643Z,47.74
2019-03-13T00:39:59.977Z,47.64
2019-03-13T00:41:00.302Z,47.95
2019-03-13T00:42:00.485Z,47.23
2019-03-13T00:43:00.818Z,47.54
2019-03-13T00:44:01.147Z,47.64
2019-03-13T00:45:01.448Z,47.33
2019-03-13T00:46:01.748Z,47.64
2019-03-13T00:47:02.044Z,47.64
2019-03-13T00:48:02.341Z,47.54
2019-03-13T00:49:02.694Z,46.72
2019-03-13T00:50:02.925Z,47.02
2019-03-13T00:51:03.243Z,47.13
2019-03-13T00:52:03.543Z,45.79
2019-03-13T00:53:03.839Z,46.00
2019-03-13T00:54:04.157Z,46.30
2019-03-13T00:55:04.452Z,46.20
2019-03-13T00:56:04.748Z,46.82
2019-03-13T00:57:05.124Z,45.67
2019-03-13T00:58:05.384Z,45.76
2019-03-13T00:59:05.658Z,46.80
2019-03-13T01:00:06.010Z,45.89
2019-03-13T01:01:06.251Z,45.79
2019-03-13T01:02:06.555Z,46.48
2019-03-13T01:03:06.831Z,46.28
2019-03-13T01:04:07.154Z,46.30
2019-03-13T01:05:07.450Z,46.20
2019-03-13T01:06:07.836Z,46.18
2019-03-13T01:07:08.049Z,46.00
2019-03-13T01:08:08.333Z,45.97
2019-03-13T01:09:08.650Z,45.46
2019-03-13T01:10:08.911Z,45.46
2019-03-13T01:11:09.219Z,46.39
2019-03-13T01:12:09.541Z,46.08
2019-03-13T01:13:09.829Z,46.41
2019-03-13T01:14:10.261Z,46.28
2019-03-13T01:15:10.401Z,46.08
2019-03-13T01:16:10.730Z,45.67
2019-03-13T01:17:11.050Z,46.28
2019-03-13T01:18:11.336Z,46.08
2019-03-13T01:19:11.892Z,45.87
2019-03-13T01:20:11.930Z,45.36
2019-03-13T01:21:12.245Z,45.56
2019-03-13T01:22:12.578Z,45.87
2019-03-13T01:23:12.813Z,45.04
2019-03-13T01:24:13.139Z,45.56
2019-03-13T01:25:13.418Z,45.56
2019-03-13T01:26:13.727Z,45.76
2019-03-13T01:27:14.035Z,45.97
2019-03-13T01:28:14.302Z,45.25
2019-03-13T01:29:14.629Z,45.67
2019-03-13T01:30:14.978Z,46.08
2019-03-13T01:31:15.207Z,46.18
2019-03-13T01:32:15.524Z,45.97
2019-03-13T01:33:15.798Z,45.67
2019-03-13T01:34:16.114Z,45.46
2019-03-13T01:35:16.418Z,45.46
2019-03-13T01:36:16.713Z,45.46
2019-03-13T01:37:17.034Z,46.59
2019-03-13T01:38:17.322Z,46.80
2019-03-13T01:39:17.666Z,46.48
2019-03-13T01:40:17.905Z,47.72
2019-03-13T01:41:18.215Z,48.13
2019-03-13T01:42:18.525Z,48.24
2019-03-13T01:43:18.805Z,51.12
2019-03-13T01:44:19.088Z,54.30
2019-03-13T01:45:19.387Z,54.33
2019-03-13T01:46:19.709Z,56.70
2019-03-13T01:47:20.135Z,57.52
2019-03-13T01:48:20.296Z,57.42
2019-03-13T01:49:20.587Z,58.45
2019-03-13T01:50:20.922Z,60.63
2019-03-13T01:51:21.245Z,60.94
2019-03-13T01:52:21.545Z,62.21
2019-03-13T01:53:21.844Z,61.90
2019-03-13T01:54:22.135Z,62.31
2019-03-13T01:55:22.519Z,61.38
2019-03-13T01:56:22.742Z,63.13
2019-03-13T01:57:23.048Z,62.96
2019-03-13T01:58:23.338Z,61.90
2019-03-13T01:59:23.639Z,62.96
2019-03-13T02:00:23.953Z,61.61
2019-03-13T02:01:24.237Z,61.93
2019-03-13T02:02:24.554Z,61.82
2019-03-13T02:03:24.894Z,63.68
2019-03-13T02:04:25.116Z,64.29
2019-03-13T02:05:25.434Z,65.74
2019-03-13T02:06:25.724Z,65.36
2019-03-13T02:07:26.019Z,67.83
2019-03-13T02:08:26.313Z,67.93
2019-03-13T02:09:26.619Z,67.80
2019-03-13T02:10:26.951Z,68.76
2019-03-13T02:11:27.252Z,69.69
2019-03-13T02:12:27.551Z,69.79
2019-03-13T02:13:27.806Z,70.23
2019-03-13T02:14:28.121Z,70.75
2019-03-13T02:15:28.437Z,70.86
2019-03-13T02:16:28.726Z,71.68
2019-03-13T02:17:29.037Z,72.81
2019-03-13T02:18:29.294Z,72.44
2019-03-13T02:19:29.624Z,72.23
2019-03-13T02:20:30.055Z,72.54
2019-03-13T02:21:30.245Z,73.33
2019-03-13T02:22:30.515Z,73.26
2019-03-13T02:23:30.810Z,74.81
2019-03-13T02:24:31.125Z,73.98
2019-03-13T02:25:31.440Z,74.81
2019-03-13T02:26:31.736Z,75.36
2019-03-13T02:27:32.048Z,74.71
2019-03-13T02:28:32.445Z,75.98
2019-03-13T02:29:32.615Z,75.95
2019-03-13T02:30:32.941Z,76.08
2019-03-13T02:31:33.228Z,75.98
2019-03-13T02:32:33.541Z,76.29
2019-03-13T02:33:33.832Z,76.90
2019-03-13T02:34:34.104Z,76.87
2019-03-13T02:35:34.432Z,76.70
2019-03-13T02:36:34.775Z,77.28
2019-03-13T02:37:35.011Z,77.01
2019-03-13T02:38:35.302Z,77.32
2019-03-13T02:39:35.585Z,77.63
2019-03-13T02:40:35.904Z,76.81
2019-03-13T02:41:36.212Z,77.53
2019-03-13T02:42:36.511Z,78.66
2019-03-13T02:43:36.796Z,79.08
2019-03-13T02:44:37.132Z,79.28
2019-03-13T02:45:37.403Z,79.90
2019-03-13T02:46:37.701Z,80.00
2019-03-13T02:47:38.016Z,79.59
2019-03-13T02:48:38.296Z,78.45
2019-03-13T02:49:38.598Z,78.87
2019-03-13T02:50:38.915Z,78.05
2019-03-13T02:51:39.189Z,78.45
2019-03-13T02:52:39.541Z,78.87
2019-03-13T02:53:39.923Z,78.35
2019-03-13T02:54:40.118Z,79.69
2019-03-13T02:55:40.436Z,79.08
2019-03-13T02:56:40.709Z,79.18
2019-03-13T02:57:41.016Z,79.90
2019-03-13T02:58:41.570Z,80.04
2019-03-13T02:59:41.630Z,79.83
2019-03-13T03:00:41.943Z,79.32
2019-03-13T03:01:42.388Z,79.63
2019-03-13T03:02:42.525Z,80.11
2019-03-13T03:03:42.846Z,79.90
2019-03-13T03:04:43.141Z,80.35
2019-03-13T03:05:43.477Z,79.83
2019-03-13T03:06:43.734Z,80.35
2019-03-13T03:07:44.003Z,80.35
2019-03-13T03:08:44.341Z,79.90
2019-03-13T03:09:44.700Z,80.62
2019-03-13T03:10:44.947Z,80.35
2019-03-13T03:11:45.238Z,79.94
2019-03-13T03:12:45.526Z,80.62
2019-03-13T03:13:45.825Z,80.21
2019-03-13T03:14:46.135Z,80.35
2019-03-13T03:15:46.442Z,80.04
2019-03-13T03:16:46.756Z,79.94
2019-03-13T03:17:47.102Z,80.35
2019-03-13T03:18:47.298Z,80.35
2019-03-13T03:19:47.593Z,80.04
2019-03-13T03:20:47.923Z,79.32
2019-03-13T03:21:48.234Z,79.32
2019-03-13T03:22:48.515Z,79.22
2019-03-13T03:23:48.826Z,79.32
2019-03-13T03:24:49.114Z,78.97
2019-03-13T03:25:49.440Z,79.11
2019-03-13T03:26:49.778Z,78.66
2019-03-13T03:27:50.022Z,78.77
2019-03-13T03:28:50.328Z,77.87
2019-03-13T03:29:50.609Z,77.73
2019-03-13T03:30:50.917Z,77.84
2019-03-13T03:31:51.395Z,78.87
2019-03-13T03:32:51.509Z,78.35
2019-03-13T03:33:51.833Z,78.56
2019-03-13T03:34:52.251Z,78.35
2019-03-13T03:35:52.435Z,77.32
2019-03-13T03:36:52.763Z,77.84
2019-03-13T03:37:53.027Z,78.14
2019-03-13T03:38:53.348Z,76.70
2019-03-13T03:39:53.632Z,76.67
2019-03-13T03:40:53.948Z,74.19
2019-03-13T03:41:54.239Z,73.68
2019-03-13T03:42:54.632Z,72.23
2019-03-13T03:43:54.836Z,73.05
2019-03-13T03:44:55.134Z,73.16
2019-03-13T03:45:55.438Z,72.85
2019-03-13T03:46:55.704Z,72.85
2019-03-13T03:47:56.020Z,72.64
2019-03-13T03:48:56.353Z,72.67
2019-03-13T03:49:56.659Z,72.78
2019-03-13T03:50:56.986Z,73.39
2019-03-13T03:51:57.212Z,73.91
2019-03-13T03:52:57.514Z,74.02
2019-03-13T03:53:57.839Z,73.29
2019-03-13T03:54:58.135Z,74.12
2019-03-13T03:55:58.415Z,74.02
2019-03-13T03:56:58.714Z,75.05
2019-03-13T03:57:59.030Z,74.95
2019-03-13T03:58:59.373Z,75.77
2019-03-13T03:59:59.668Z,76.29
2019-03-13T04:00:59.914Z,76.08
2019-03-13T04:02:00.241Z,76.08
2019-03-13T04:03:00.645Z,76.39
2019-03-13T04:04:00.860Z,76.81
2019-03-13T04:05:01.134Z,76.12
2019-03-13T04:06:01.432Z,76.29
2019-03-13T04:07:01.777Z,76.43
2019-03-13T04:08:02.206Z,76.90
2019-03-13T04:09:02.364Z,76.94
2019-03-13T04:10:02.653Z,76.73
2019-03-13T04:11:02.972Z,75.87
2019-03-13T04:12:03.286Z,76.18
2019-03-13T04:13:03.605Z,75.91
2019-03-13T04:14:03.879Z,76.64
2019-03-13T04:15:04.145Z,75.91
2019-03-13T04:16:04.559Z,75.91
2019-03-13T04:17:04.773Z,76.12
2019-03-13T04:18:05.070Z,76.12
2019-03-13T04:19:05.390Z,75.49
2019-03-13T04:20:05.651Z,76.22
2019-03-13T04:21:05.966Z,74.88
2019-03-13T04:22:06.268Z,74.88
2019-03-13T04:23:06.576Z,74.77
2019-03-13T04:24:06.945Z,74.15
2019-03-13T04:25:07.148Z,74.26
2019-03-13T04:26:07.472Z,73.95
2019-03-13T04:27:07.760Z,73.77
2019-03-13T04:28:08.061Z,73.64
2019-03-13T04:29:08.365Z,71.47
2019-03-13T04:30:08.656Z,71.47
2019-03-13T04:31:08.950Z,71.40
2019-03-13T04:32:09.286Z,70.37
2019-03-13T04:33:09.537Z,69.74
2019-03-13T04:34:09.849Z,69.23
2019-03-13T04:35:10.143Z,69.12
2019-03-13T04:36:10.442Z,69.23
2019-03-13T04:37:10.976Z,69.33
2019-03-13T04:38:11.037Z,68.71
2019-03-13T04:39:11.362Z,69.54
2019-03-13T04:40:11.657Z,69.85
2019-03-13T04:41:12.046Z,70.26
2019-03-13T04:42:12.236Z,70.37
2019-03-13T04:43:12.528Z,70.37
2019-03-13T04:44:12.854Z,70.67
2019-03-13T04:45:13.135Z,70.98
2019-03-13T04:46:13.437Z,71.19
2019-03-13T04:47:13.750Z,71.19
2019-03-13T04:48:14.043Z,71.22
2019-03-13T04:49:14.462Z,71.33
2019-03-13T04:50:14.630Z,71.33
2019-03-13T04:51:14.925Z,70.92
2019-03-13T04:52:15.243Z,71.64
2019-03-13T04:53:15.521Z,71.50
2019-03-13T04:54:15.838Z,71.12
2019-03-13T04:55:16.131Z,70.92
2019-03-13T04:56:16.433Z,70.71
2019-03-13T04:57:16.817Z,69.74
2019-03-13T04:58:17.023Z,69.98
2019-03-13T04:59:17.297Z,70.29
2019-03-13T05:00:17.625Z,70.19
2019-03-13T05:01:17.919Z,70.40
2019-03-13T05:02:18.235Z,69.98
2019-03-13T05:03:18.527Z,69.67
2019-03-13T05:04:18.822Z,70.09
2019-03-13T05:05:19.171Z,69.16
2019-03-13T05:06:19.402Z,69.57
2019-03-13T05:07:19.725Z,68.43
2019-03-13T05:08:20.018Z,67.61
2019-03-13T05:09:20.300Z,67.19
2019-03-13T05:10:20.614Z,67.09
2019-03-13T05:11:20.904Z,67.30
2019-03-13T05:12:21.240Z,67.40
2019-03-13T05:13:21.594Z,67.19
2019-03-13T05:14:21.888Z,66.99
2019-03-13T05:15:22.135Z,67.22
2019-03-13T05:16:22.388Z,66.19
2019-03-13T05:17:22.726Z,66.06
2019-03-13T05:18:23.048Z,66.26
2019-03-13T05:19:23.323Z,66.91
2019-03-13T05:20:23.631Z,67.33
2019-03-13T05:21:23.970Z,66.71
2019-03-13T05:22:24.325Z,66.29
2019-03-13T05:23:24.540Z,66.19
2019-03-13T05:24:24.817Z,65.99
2019-03-13T05:25:25.153Z,66.81
2019-03-13T05:26:25.419Z,66.71
2019-03-13T05:27:25.712Z,66.19
2019-03-13T05:28:26.012Z,66.53
2019-03-13T05:29:26.329Z,67.15
2019-03-13T05:30:26.798Z,67.36
2019-03-13T05:31:26.961Z,67.46
2019-03-13T05:32:27.257Z,68.08
2019-03-13T05:33:27.567Z,67.46
2019-03-13T05:34:27.874Z,67.67
2019-03-13T05:35:28.175Z,69.25
2019-03-13T05:36:28.456Z,68.91
2019-03-13T05:37:28.776Z,69.15
2019-03-13T05:38:29.117Z,68.19
2019-03-13T05:39:29.356Z,68.60
2019-03-13T05:40:29.692Z,69.32
2019-03-13T05:41:29.948Z,69.22
2019-03-13T05:42:30.278Z,69.43
2019-03-13T05:43:30.540Z,68.29
2019-03-13T05:44:30.824Z,68.60
2019-03-13T05:45:31.189Z,68.08
2019-03-13T05:46:31.488Z,69.01
2019-03-13T05:47:31.765Z,69.01
2019-03-13T05:48:32.039Z,68.70
2019-03-13T05:49:32.338Z,69.32
2019-03-13T05:50:32.652Z,69.12
2019-03-13T05:51:32.941Z,68.70
2019-03-13T05:52:33.262Z,69.43
2019-03-13T05:53:33.533Z,68.91
2019-03-13T05:54:33.885Z,68.80
2019-03-13T05:55:34.263Z,68.91
2019-03-13T05:56:34.480Z,69.22
2019-03-13T05:57:34.793Z,69.32
2019-03-13T05:58:35.073Z,69.15
2019-03-13T05:59:35.382Z,68.91
2019-03-13T06:00:35.693Z,68.19
2019-03-13T06:01:35.955Z,69.56
2019-03-13T06:02:36.291Z,69.46
2019-03-13T06:03:36.730Z,69.67
2019-03-13T06:04:36.878Z,69.87
2019-03-13T06:05:37.185Z,69.04
2019-03-13T06:06:37.455Z,69.87
2019-03-13T06:07:37.778Z,68.98
2019-03-13T06:08:38.078Z,69.87
2019-03-13T06:09:38.378Z,69.25
2019-03-13T06:10:38.695Z,68.70
2019-03-13T06:11:39.062Z,68.70
2019-03-13T06:12:39.265Z,69.53
2019-03-13T06:13:39.828Z,69.01
2019-03-13T06:14:40.126Z,69.12
2019-03-13T06:15:40.445Z,69.01
2019-03-13T06:16:40.723Z,68.80
2019-03-13T06:17:41.008Z,69.01
2019-03-13T06:18:41.326Z,68.88
2019-03-13T06:19:41.704Z,68.98
2019-03-13T06:20:41.947Z,69.40
2019-03-13T06:21:42.228Z,68.77
2019-03-13T06:22:42.522Z,67.33
2019-03-13T06:23:42.837Z,67.43
2019-03-13T06:24:43.116Z,67.85
2019-03-13T06:25:43.444Z,67.74
2019-03-13T06:26:43.786Z,67.54
2019-03-13T06:27:45.903Z,68.02
2019-03-13T06:28:44.376Z,68.12
2019-03-13T06:29:44.635Z,68.33
2019-03-13T06:30:44.947Z,67.61
2019-03-13T06:31:45.239Z,67.12
2019-03-13T06:32:45.540Z,66.99
2019-03-13T06:33:45.853Z,66.78
2019-03-13T06:34:46.144Z,66.99
2019-03-13T06:35:46.458Z,68.02
2019-03-13T06:36:46.799Z,67.09
2019-03-13T06:37:47.029Z,66.26
2019-03-13T06:38:47.344Z,66.26
2019-03-13T06:39:47.620Z,65.64
2019-03-13T06:40:47.934Z,66.16
2019-03-13T06:41:48.230Z,65.85
2019-03-13T06:42:48.525Z,65.64
2019-03-13T06:43:48.850Z,66.16
2019-03-13T06:44:49.243Z,65.64
2019-03-13T06:45:49.436Z,65.85
2019-03-13T06:46:49.718Z,65.64
2019-03-13T06:47:50.016Z,66.16
2019-03-13T06:48:50.333Z,65.95
2019-03-13T06:49:50.616Z,65.85
2019-03-13T06:50:50.916Z,66.23
2019-03-13T06:51:51.196Z,65.82
2019-03-13T06:52:51.558Z,65.30
2019-03-13T06:53:51.808Z,65.61
2019-03-13T06:54:52.114Z,65.61
2019-03-13T06:55:52.413Z,66.03
2019-03-13T06:56:52.694Z,65.72
2019-03-13T06:57:52.978Z,65.82
2019-03-13T06:58:53.304Z,65.27
2019-03-13T06:59:53.593Z,65.20
2019-03-13T07:00:53.956Z,65.51
2019-03-13T07:01:54.172Z,65.69
2019-03-13T07:02:54.470Z,65.72
2019-03-13T07:03:54.794Z,65.06
2019-03-13T07:04:55.101Z,65.27
2019-03-13T07:05:55.396Z,65.37
2019-03-13T07:06:55.696Z,65.48
2019-03-13T07:07:55.968Z,65.27
2019-03-13T07:08:56.291Z,65.89
2019-03-13T07:09:56.669Z,65.27
2019-03-13T07:10:56.887Z,65.30
2019-03-13T07:11:57.175Z,65.82
2019-03-13T07:12:57.468Z,66.13
2019-03-13T07:13:57.776Z,65.61
2019-03-13T07:14:58.073Z,65.72
2019-03-13T07:15:58.380Z,65.41
2019-03-13T07:16:59.153Z,66.20
2019-03-13T07:17:59.062Z,65.30
2019-03-13T07:18:59.262Z,65.72
2019-03-13T07:19:59.567Z,66.20
2019-03-13T07:20:59.865Z,65.58
2019-03-13T07:22:00.161Z,65.48
2019-03-13T07:23:00.458Z,64.52
2019-03-13T07:24:00.774Z,63.07
2019-03-13T07:25:01.066Z,63.59
2019-03-13T07:26:01.428Z,64.00
2019-03-13T07:27:01.661Z,63.28
2019-03-13T07:28:01.958Z,63.90
2019-03-13T07:29:11.549Z,63.28
2019-03-13T07:30:03.576Z,63.28
2019-03-13T07:31:02.842Z,63.15
2019-03-13T07:32:03.167Z,63.04
2019-03-13T07:33:03.469Z,63.15
2019-03-13T07:34:03.821Z,63.04
2019-03-13T07:35:04.068Z,62.94
2019-03-13T07:36:04.332Z,63.15
2019-03-13T07:37:04.673Z,63.25
2019-03-13T07:38:04.978Z,63.04
2019-03-13T07:39:05.279Z,62.43
2019-03-13T07:40:05.565Z,63.25
2019-03-13T07:41:05.855Z,62.63
2019-03-13T07:42:06.194Z,63.04
2019-03-13T07:43:06.506Z,63.28
2019-03-13T07:44:06.773Z,63.28
2019-03-13T07:45:07.054Z,63.59
2019-03-13T07:46:07.352Z,63.18
2019-03-13T07:47:07.654Z,63.79
2019-03-13T07:48:07.951Z,63.07
2019-03-13T07:49:08.270Z,63.25
2019-03-13T07:50:08.561Z,61.60
2019-03-13T07:51:08.960Z,62.32
2019-03-13T07:52:09.388Z,62.94
2019-03-13T07:53:09.476Z,62.32
2019-03-13T07:54:09.786Z,62.08
2019-03-13T07:55:10.069Z,62.06
2019-03-13T07:56:10.365Z,61.03
2019-03-13T07:57:10.684Z,60.72
2019-03-13T07:58:10.969Z,61.85
2019-03-13T07:59:11.364Z,60.10
2019-03-13T08:00:11.554Z,60.31
2019-03-13T08:01:11.855Z,59.89
2019-03-13T08:02:12.164Z,60.61
2019-03-13T08:03:12.479Z,60.41
2019-03-13T08:04:12.751Z,60.51
2019-03-13T08:05:13.058Z,60.72
2019-03-13T08:06:13.350Z,60.82
2019-03-13T08:07:13.715Z,60.51
2019-03-13T08:08:13.933Z,61.13
2019-03-13T08:09:14.255Z,61.85
2019-03-13T08:10:14.516Z,61.03
2019-03-13T08:11:14.839Z,60.41
2019-03-13T08:12:15.146Z,60.93
2019-03-13T08:13:15.420Z,60.41
2019-03-13T08:14:15.739Z,60.72
2019-03-13T08:15:16.034Z,60.41
2019-03-13T08:16:16.329Z,60.51
2019-03-13T08:17:16.654Z,59.89
2019-03-13T08:18:16.928Z,61.03
2019-03-13T08:19:17.301Z,60.61
2019-03-13T08:20:17.538Z,60.00
2019-03-13T08:21:17.839Z,60.72
2019-03-13T08:22:18.147Z,60.10
2019-03-13T08:23:18.472Z,61.03
2019-03-13T08:24:18.885Z,60.72
2019-03-13T08:25:19.040Z,60.41
2019-03-13T08:26:19.357Z,59.97
2019-03-13T08:27:19.660Z,60.38
2019-03-13T08:28:19.935Z,60.28
2019-03-13T08:29:20.239Z,60.17
2019-03-13T08:30:20.706Z,59.97
2019-03-13T08:31:20.850Z,60.28
2019-03-13T08:32:21.242Z,59.35
2019-03-13T08:33:21.440Z,59.66
2019-03-13T08:34:21.718Z,58.60
2019-03-13T08:35:22.039Z,58.63
2019-03-13T08:36:22.341Z,58.81
2019-03-13T08:37:22.658Z,58.09
2019-03-13T08:38:22.959Z,57.65
2019-03-13T08:39:23.225Z,57.44
2019-03-13T08:40:23.613Z,57.98
2019-03-13T08:41:23.817Z,57.24
2019-03-13T08:42:24.124Z,57.44
2019-03-13T08:43:24.444Z,57.62
2019-03-13T08:44:24.732Z,57.31
2019-03-13T08:45:25.051Z,57.01
2019-03-13T08:46:25.333Z,56.59
2019-03-13T08:47:25.659Z,56.26
2019-03-13T08:48:25.971Z,56.87
2019-03-13T08:49:26.205Z,56.77
2019-03-13T08:50:26.528Z,56.15
2019-03-13T08:51:26.817Z,56.23
2019-03-13T08:52:27.138Z,56.13
2019-03-13T08:53:27.440Z,55.41
2019-03-13T08:54:27.706Z,55.10
2019-03-13T08:55:28.030Z,55.30
2019-03-13T08:56:28.357Z,54.59
2019-03-13T08:57:28.700Z,55.10
2019-03-13T08:58:28.900Z,55.13
2019-03-13T08:59:29.196Z,55.74
2019-03-13T09:00:29.522Z,56.15
2019-03-13T09:01:29.805Z,55.74
2019-03-13T09:02:30.161Z,56.57
2019-03-13T09:03:30.410Z,56.34
2019-03-13T09:04:30.706Z,55.62
2019-03-13T09:05:31.141Z,55.72
2019-03-13T09:06:31.314Z,55.10
2019-03-13T09:07:31.660Z,55.10
2019-03-13T09:08:31.905Z,55.59
2019-03-13T09:09:32.227Z,55.28
2019-03-13T09:10:32.508Z,55.10
2019-03-13T09:11:32.815Z,55.00
2019-03-13T09:12:33.124Z,55.08
2019-03-13T09:13:33.494Z,55.08
2019-03-13T09:14:33.703Z,55.08
2019-03-13T09:15:33.999Z,54.53
2019-03-13T09:16:34.288Z,52.79
2019-03-13T09:17:34.634Z,52.46
2019-03-13T09:18:34.907Z,53.89
2019-03-13T09:19:35.206Z,53.59
2019-03-13T09:20:35.524Z,53.17
2019-03-13T09:21:35.824Z,53.69
2019-03-13T09:22:36.112Z,52.25
2019-03-13T09:23:36.390Z,53.49
2019-03-13T09:24:36.688Z,54.02
2019-03-13T09:25:37.006Z,54.53
2019-03-13T09:26:37.279Z,54.00
2019-03-13T09:27:37.590Z,53.61
2019-03-13T09:28:37.861Z,53.61
2019-03-13T09:29:38.284Z,53.81
2019-03-13T09:30:38.510Z,53.61
2019-03-13T09:31:39.017Z,52.59
2019-03-13T09:32:39.081Z,53.51
2019-03-13T09:33:39.353Z,54.15
2019-03-13T09:34:39.675Z,53.94
2019-03-13T09:35:39.990Z,54.56
2019-03-13T09:36:40.271Z,54.02
2019-03-13T09:37:40.597Z,53.49
2019-03-13T09:38:41.019Z,54.13
2019-03-13T09:39:41.191Z,53.69
2019-03-13T09:40:41.508Z,52.25
2019-03-13T09:41:41.785Z,52.48
2019-03-13T09:42:42.109Z,52.15
2019-03-13T09:43:42.401Z,52.04
2019-03-13T09:44:42.678Z,51.64
2019-03-13T09:45:43.012Z,51.74
2019-03-13T09:46:43.422Z,52.25
2019-03-13T09:47:43.614Z,52.36
2019-03-13T09:48:43.915Z,51.92
2019-03-13T09:49:44.173Z,51.90
2019-03-13T09:50:44.513Z,50.28
2019-03-13T09:51:44.805Z,50.36
2019-03-13T09:52:45.092Z,49.85
2019-03-13T09:53:45.427Z,49.33
2019-03-13T09:54:45.716Z,49.62
2019-03-13T09:55:45.993Z,49.21
2019-03-13T09:56:46.292Z,49.41
2019-03-13T09:57:46.594Z,49.41
2019-03-13T09:58:46.917Z,49.59
2019-03-13T09:59:47.188Z,49.18
2019-03-13T10:00:47.507Z,49.90
2019-03-13T10:01:47.770Z,49.67
2019-03-13T10:02:48.129Z,48.96
2019-03-13T10:03:48.388Z,48.98
2019-03-13T10:04:48.670Z,49.57
2019-03-13T10:05:48.992Z,49.80
2019-03-13T10:06:49.252Z,49.37
2019-03-13T10:07:49.580Z,49.77
2019-03-13T10:08:49.911Z,49.26
2019-03-13T10:09:50.188Z,48.75
2019-03-13T10:10:50.513Z,49.67
2019-03-13T10:11:50.880Z,49.16
2019-03-13T10:12:51.082Z,48.52
2019-03-13T10:13:51.405Z,47.93
2019-03-13T10:14:51.678Z,48.34
2019-03-13T10:15:51.994Z,47.83
2019-03-13T10:16:52.276Z,47.42
2019-03-13T10:17:52.559Z,48.03
2019-03-13T10:18:52.908Z,47.31
2019-03-13T10:19:53.290Z,47.31
2019-03-13T10:20:53.511Z,47.91
2019-03-13T10:21:53.787Z,48.83
2019-03-13T10:22:54.062Z,47.99
2019-03-13T10:23:54.416Z,46.37
2019-03-13T10:24:54.686Z,46.19
2019-03-13T10:25:55.002Z,46.60
2019-03-13T10:26:55.290Z,46.60
2019-03-13T10:27:55.669Z,46.50
2019-03-13T10:28:55.893Z,47.11
2019-03-13T10:29:56.172Z,46.27
2019-03-13T10:30:56.488Z,46.58
2019-03-13T10:31:56.765Z,46.66
2019-03-13T10:32:57.064Z,46.07
2019-03-13T10:33:57.376Z,45.56
2019-03-13T10:34:57.647Z,45.86
2019-03-13T10:35:58.002Z,46.04
2019-03-13T10:36:58.250Z,46.58
2019-03-13T10:37:58.559Z,46.76
2019-03-13T10:38:58.880Z,46.25
2019-03-13T10:39:59.125Z,46.25
2019-03-13T10:40:59.439Z,46.25
2019-03-13T10:41:59.772Z,46.45
2019-03-13T10:43:00.068Z,46.97
2019-03-13T10:44:00.699Z,46.97
2019-03-13T10:45:00.763Z,47.05
2019-03-13T10:46:01.005Z,47.05
2019-03-13T10:47:01.336Z,46.84
2019-03-13T10:48:01.617Z,46.86
2019-03-13T10:49:01.984Z,46.56
2019-03-13T10:50:02.233Z,46.45
2019-03-13T10:51:02.517Z,46.35
2019-03-13T10:52:02.842Z,47.09
2019-03-13T10:53:03.247Z,46.86
2019-03-13T10:54:03.478Z,46.76
2019-03-13T10:55:03.734Z,46.58
2019-03-13T10:56:04.009Z,46.58
2019-03-13T10:57:04.339Z,46.58
2019-03-13T10:58:04.624Z,46.48
2019-03-13T10:59:04.954Z,46.78
2019-03-13T11:00:05.217Z,46.68
2019-03-13T11:01:05.593Z,46.56
2019-03-13T11:02:05.836Z,46.23
2019-03-13T11:03:06.110Z,46.44
2019-03-13T11:04:06.444Z,45.92
2019-03-13T11:05:06.723Z,45.92
2019-03-13T11:06:07.014Z,45.61
2019-03-13T11:07:07.314Z,46.03
2019-03-13T11:08:07.602Z,45.12
2019-03-13T11:09:07.997Z,46.03
2019-03-13T11:10:08.438Z,45.84
2019-03-13T11:11:08.494Z,45.84
2019-03-13T11:12:08.813Z,45.92
2019-03-13T11:13:09.097Z,46.04
2019-03-13T11:14:15.397Z,46.04
2019-03-13T11:15:10.701Z,46.04
2019-03-13T11:16:09.992Z,45.84
2019-03-13T11:17:10.369Z,46.45
2019-03-13T11:18:10.566Z,45.97
2019-03-13T11:19:10.875Z,45.15
2019-03-13T11:20:11.197Z,45.45
2019-03-13T11:21:11.480Z,45.56
2019-03-13T11:22:11.797Z,45.86
2019-03-13T11:23:12.077Z,45.84
2019-03-13T11:24:12.395Z,45.76
2019-03-13T11:25:12.710Z,45.84
2019-03-13T11:26:13.058Z,45.43
2019-03-13T11:27:13.298Z,45.72
2019-03-13T11:28:13.572Z,45.82
2019-03-13T11:29:13.885Z,45.92
2019-03-13T11:30:14.192Z,45.61
2019-03-13T11:31:14.468Z,45.41
2019-03-13T11:32:14.786Z,46.74
2019-03-13T11:33:15.074Z,45.41
2019-03-13T11:34:15.450Z,45.82
2019-03-13T11:35:15.670Z,45.39
2019-03-13T11:36:15.964Z,44.98
2019-03-13T11:37:16.274Z,45.80
2019-03-13T11:38:16.555Z,46.29
2019-03-13T11:39:16.873Z,45.18
2019-03-13T11:40:17.173Z,45.49
2019-03-13T11:41:17.456Z,45.59
2019-03-13T11:42:17.881Z,45.80
2019-03-13T11:43:18.047Z,43.76
2019-03-13T11:44:18.349Z,45.08
2019-03-13T11:45:18.648Z,45.17
2019-03-13T11:46:18.941Z,44.96
2019-03-13T11:47:19.257Z,45.29
2019-03-13T11:48:19.547Z,45.18
2019-03-13T11:49:19.839Z,45.39
2019-03-13T11:50:20.216Z,46.12
2019-03-13T11:51:20.464Z,45.72
2019-03-13T11:52:20.751Z,45.72
2019-03-13T11:53:21.051Z,46.04
2019-03-13T11:54:21.348Z,45.53
2019-03-13T11:55:21.678Z,45.43
2019-03-13T11:56:21.954Z,46.97
2019-03-13T11:57:22.354Z,46.76
2019-03-13T11:58:22.589Z,47.27
2019-03-13T11:59:22.879Z,46.35
2019-03-13T12:00:23.200Z,46.97
2019-03-13T12:01:23.483Z,46.17
2019-03-13T12:02:23.800Z,46.89
2019-03-13T12:03:24.072Z,46.99
2019-03-13T12:04:24.363Z,46.89
2019-03-13T12:05:24.694Z,46.27
2019-03-13T12:06:25.011Z,46.50
2019-03-13T12:07:25.381Z,47.52
2019-03-13T12:08:25.557Z,47.11
2019-03-13T12:09:25.872Z,47.31
2019-03-13T12:10:26.189Z,46.62
2019-03-13T12:11:26.503Z,47.13
2019-03-13T12:12:26.787Z,47.03
2019-03-13T12:13:27.070Z,46.93
2019-03-13T12:14:27.347Z,47.03
2019-03-13T12:15:27.771Z,47.44
2019-03-13T12:16:27.995Z,46.83
2019-03-13T12:17:28.273Z,47.13
2019-03-13T12:18:28.561Z,46.62
2019-03-13T12:19:28.874Z,46.72
2019-03-13T12:20:29.176Z,46.93
2019-03-13T12:21:29.485Z,46.93
2019-03-13T12:22:29.779Z,47.36
2019-03-13T12:23:30.134Z,47.67
2019-03-13T12:24:30.323Z,48.16
2019-03-13T12:25:30.643Z,48.08
2019-03-13T12:26:30.960Z,48.16
2019-03-13T12:27:31.254Z,48.49
2019-03-13T12:28:31.537Z,47.97
2019-03-13T12:29:31.845Z,48.08
2019-03-13T12:30:32.154Z,47.97
2019-03-13T12:31:32.487Z,47.97
2019-03-13T12:32:32.743Z,48.98
2019-03-13T12:33:35.278Z,48.67
2019-03-13T12:34:33.317Z,48.67
2019-03-13T12:35:33.633Z,47.96
2019-03-13T12:36:33.919Z,48.16
2019-03-13T12:37:34.236Z,47.24
2019-03-13T12:38:34.523Z,47.44
2019-03-13T12:39:34.844Z,47.85
2019-03-13T12:40:35.193Z,47.03
2019-03-13T12:41:35.417Z,47.96
2019-03-13T12:42:35.728Z,47.34
2019-03-13T12:43:36.015Z,47.24
2019-03-13T12:44:36.317Z,47.96
2019-03-13T12:45:36.629Z,47.75
2019-03-13T12:46:36.912Z,47.96
2019-03-13T12:47:37.238Z,47.96
2019-03-13T12:48:37.644Z,48.06
2019-03-13T12:49:38.039Z,48.88
2019-03-13T12:50:38.133Z,47.64
2019-03-13T12:51:38.413Z,47.44
2019-03-13T12:52:38.718Z,48.06
2019-03-13T12:53:39.035Z,47.34
2019-03-13T12:54:39.315Z,48.77
2019-03-13T12:55:39.644Z,48.18
2019-03-13T12:56:40.010Z,48.28